Time;durP1;ratioP1;P1;durP2;ratioP2;P2;SDS_P1;SDS_P2;PMS_P1;PMS_P2;Temp;Humidity;BMP_temperature;BMP_pressure;BME280_temperature;BME280_humidity;BME280_pressure;Samples;Min_cycle;Max_cycle;Signal;HPM_P1;HPM_P2
2021/06/22 00:01:33;;;;;;;8.10;3.10;;;;;;;;;;5126470;27;20408;-67
2021/06/22 00:05:25;;;;;;;15.55;14.20;;;;;;;;;;5126528;27;20760;-67
2021/06/22 00:07:53;;;;;;;9.77;2.90;;;;;;;;;;5108804;28;20430;-67
2021/06/22 00:10:20;;;;;;;10.35;3.10;;;;;;;;;;5109042;28;20570;-67
2021/06/22 00:12:46;;;;;;;9.00;2.30;;;;;;;;;;5110381;28;20058;-66
2021/06/22 00:15:15;;;;;;;8.55;2.55;;;;;;;;;;5108547;28;20526;-67
2021/06/22 00:17:41;;;;;;;10.77;2.70;;;;;;;;;;5110336;28;20051;-66
2021/06/22 00:22:19;;;;;;;10.68;2.80;;;;;;;;;;5133144;27;20115;-67
2021/06/22 00:24:45;;;;;;;7.68;3.20;;;;;;;;;;5131064;28;20027;-67
2021/06/22 00:28:38;;;;;;;8.10;2.95;;;;;;;;;;5125983;27;20384;-67
2021/06/22 00:31:27;;;;;;;13.52;6.13;;;;;;;;;;5126351;27;20736;-67
2021/06/22 00:33:53;;;;;;;10.32;3.00;;;;;;;;;;5110504;28;20059;-67
2021/06/22 00:36:19;;;;;;;12.43;3.83;;;;;;;;;;5110128;28;20020;-67
2021/06/22 00:38:45;;;;;;;8.80;2.10;;;;;;;;;;5110492;28;20024;-67
2021/06/22 00:43:10;;;;;;;12.52;2.95;;;;;;;;;;5126155;27;20376;-67
2021/06/22 00:45:36;;;;;;;8.95;3.03;;;;;;;;;;5110430;28;20055;-67
2021/06/22 00:48:03;;;;;;;8.38;2.50;;;;;;;;;;5109117;28;20053;-67
2021/06/22 00:50:30;;;;;;;8.38;2.58;;;;;;;;;;5110717;28;20020;-67
2021/06/22 00:52:56;;;;;;;9.88;2.97;;;;;;;;;;5110305;28;20031;-67
2021/06/22 00:55:29;;;;;;;9.88;2.35;;;;;;;;;;5108621;28;20023;-67
2021/06/22 00:58:02;;;;;;;6.82;2.70;;;;;;;;;;5109057;28;20388;-67
2021/06/22 01:00:28;;;;;;;5.80;2.58;;;;;;;;;;5108987;28;20060;-67
2021/06/22 01:02:55;;;;;;;8.30;2.22;;;;;;;;;;5109949;28;20036;-67
2021/06/22 01:07:58;;;;;;;11.73;3.10;;;;;;;;;;5126385;27;20615;-68
2021/06/22 01:11:59;;;;;;;11.32;3.22;;;;;;;;;;5126347;27;20380;-67
2021/06/22 01:17:10;;;;;;;8.98;2.67;;;;;;;;;;5125939;27;20388;-67
2021/06/22 01:19:37;;;;;;;11.00;2.50;;;;;;;;;;5110526;28;20549;-67
2021/06/22 01:22:04;;;;;;;425.63;398.90;;;;;;;;;;5110583;28;20097;-67
2021/06/22 01:26:46;;;;;;;9.43;3.10;;;;;;;;;;5126297;27;20377;-67
2021/06/22 01:30:14;;;;;;;7.90;2.75;;;;;;;;;;5126328;27;20378;-67
2021/06/22 01:32:41;;;;;;;8.20;3.20;;;;;;;;;;5110113;28;20023;-67
2021/06/22 01:36:09;;;;;;;7.82;3.20;;;;;;;;;;5126254;27;20385;-67
2021/06/22 01:38:36;;;;;;;5.85;2.63;;;;;;;;;;5110042;28;20095;-67
2021/06/22 01:41:02;;;;;;;13.82;2.78;;;;;;;;;;5109251;28;20020;-67
2021/06/22 01:43:28;;;;;;;8.70;2.40;;;;;;;;;;5109337;28;20069;-67
2021/06/22 01:45:54;;;;;;;92.53;86.28;;;;;;;;;;5109952;28;20544;-67
2021/06/22 01:48:20;;;;;;;7.45;2.00;;;;;;;;;;5110226;28;20055;-67
2021/06/22 01:50:47;;;;;;;347.98;331.20;;;;;;;;;;5110237;28;20544;-67
2021/06/22 01:53:13;;;;;;;9.15;2.85;;;;;;;;;;5109816;28;20020;-67
2021/06/22 01:55:43;;;;;;;4.75;1.83;;;;;;;;;;5110039;28;20032;-67
2021/06/22 01:59:29;;;;;;;6.95;2.03;;;;;;;;;;5125999;27;20384;-67
2021/06/22 02:01:55;;;;;;;436.17;407.08;;;;;;;;;;5110628;28;20026;-67
2021/06/22 02:06:40;;;;;;;9.13;2.78;;;;;;;;;;5125858;27;20384;-67
2021/06/22 02:09:06;;;;;;;10.05;3.28;;;;;;;;;;5110548;28;20103;-67
2021/06/22 02:11:33;;;;;;;9.80;3.42;;;;;;;;;;5110411;28;20380;-67
2021/06/22 02:16:05;;;;;;;15.93;3.65;;;;;;;;;;5126616;27;20380;-67
2021/06/22 02:18:32;;;;;;;12.30;2.95;;;;;;;;;;5110777;28;20468;-67
2021/06/22 02:20:58;;;;;;;11.55;3.03;;;;;;;;;;5110125;28;20152;-67
2021/06/22 02:26:47;;;;;;;13.63;3.13;;;;;;;;;;5126020;27;20388;-67
2021/06/22 02:29:39;;;;;;;6.15;1.90;;;;;;;;;;5126413;27;20737;-67
2021/06/22 02:35:20;;;;;;;615.50;551.50;;;;;;;;;;5125911;27;20137;-67
2021/06/22 02:37:51;;;;;;;41.33;38.75;;;;;;;;;;5110418;28;20110;-67
2021/06/22 02:40:17;;;;;;;5.60;2.30;;;;;;;;;;5110502;28;20012;-67
2021/06/22 02:43:09;;;;;;;715.55;607.53;;;;;;;;;;5126548;27;20384;-67
2021/06/22 02:45:36;;;;;;;542.80;497.42;;;;;;;;;;5110595;28;20065;-67
2021/06/22 02:48:02;;;;;;;746.47;620.67;;;;;;;;;;5110272;28;20422;-67
2021/06/22 02:50:28;;;;;;;8.77;3.63;;;;;;;;;;5110450;28;20032;-67
2021/06/22 02:52:55;;;;;;;10.32;2.97;;;;;;;;;;5109021;28;20506;-67
2021/06/22 02:58:44;;;;;;;8.07;2.80;;;;;;;;;;5126292;27;20745;-67
2021/06/22 03:01:43;;;;;;;8.32;3.53;;;;;;;;;;5126223;27;20392;-67
2021/06/22 03:04:09;;;;;;;105.95;100.13;;;;;;;;;;5109318;28;20051;-67
2021/06/22 03:08:08;;;;;;;327.38;303.95;;;;;;;;;;5126346;27;20378;-67
2021/06/22 03:11:14;;;;;;;9.30;2.72;;;;;;;;;;5126404;27;20916;-67
2021/06/22 03:15:25;;;;;;;6.05;3.22;;;;;;;;;;5126279;27;20378;-67
2021/06/22 03:19:21;;;;;;;9.23;3.38;;;;;;;;;;5126557;27;20377;-67
2021/06/22 03:24:19;;;;;;;15.13;3.95;;;;;;;;;;5125997;27;20615;-67
2021/06/22 03:26:46;;;;;;;11.73;3.15;;;;;;;;;;5110465;28;20498;-67
2021/06/22 03:29:12;;;;;;;8.80;2.92;;;;;;;;;;5110428;28;20093;-67
2021/06/22 03:31:39;;;;;;;19.50;5.40;;;;;;;;;;5108915;28;20026;-67
2021/06/22 03:34:05;;;;;;;8.73;2.90;;;;;;;;;;5110303;28;20024;-67
2021/06/22 03:36:31;;;;;;;528.95;484.75;;;;;;;;;;5110266;28;20038;-67
2021/06/22 03:38:58;;;;;;;9.30;3.42;;;;;;;;;;5108767;28;20055;-67
2021/06/22 03:41:24;;;;;;;7.53;2.67;;;;;;;;;;5110394;28;20035;-67
2021/06/22 03:43:51;;;;;;;7.32;2.63;;;;;;;;;;5110078;28;20399;-67
2021/06/22 03:48:21;;;;;;;10.27;3.40;;;;;;;;;;5126367;27;20860;-67
2021/06/22 03:50:47;;;;;;;5.35;2.60;;;;;;;;;;5110775;28;20039;-67
2021/06/22 03:53:13;;;;;;;9.88;3.28;;;;;;;;;;5110062;28;20137;-67
2021/06/22 03:55:39;;;;;;;11.85;3.08;;;;;;;;;;5110409;28;20106;-67
2021/06/22 03:58:06;;;;;;;7.05;3.10;;;;;;;;;;5109924;28;20028;-67
2021/06/22 04:00:33;;;;;;;12.48;3.65;;;;;;;;;;5110506;28;20384;-67
2021/06/22 04:03:00;;;;;;;14.15;3.83;;;;;;;;;;5110343;28;20020;-67
2021/06/22 04:05:30;;;;;;;16.08;3.88;;;;;;;;;;5109956;28;20047;-67
2021/06/22 04:07:57;;;;;;;5.75;2.38;;;;;;;;;;5108797;28;20039;-67
2021/06/22 04:10:24;;;;;;;8.23;2.78;;;;;;;;;;5108701;28;20016;-67
2021/06/22 04:12:50;;;;;;;8.23;3.08;;;;;;;;;;5109704;28;20027;-67
2021/06/22 04:15:17;;;;;;;17.08;3.75;;;;;;;;;;5109964;28;20020;-67
2021/06/22 04:17:43;;;;;;;8.95;2.70;;;;;;;;;;5109946;28;20039;-67
2021/06/22 04:20:10;;;;;;;15.32;3.13;;;;;;;;;;5109764;28;20020;-67
2021/06/22 04:22:36;;;;;;;10.52;3.30;;;;;;;;;;5108685;28;20028;-67
2021/06/22 04:25:02;;;;;;;10.50;2.70;;;;;;;;;;5108573;28;20020;-67
2021/06/22 04:27:29;;;;;;;14.90;3.35;;;;;;;;;;5109382;28;20028;-67
2021/06/22 04:29:55;;;;;;;691.42;614.65;;;;;;;;;;5109702;28;20024;-69
2021/06/22 04:32:21;;;;;;;434.55;387.48;;;;;;;;;;5109692;28;20489;-68
2021/06/22 04:36:45;;;;;;;5.45;2.03;;;;;;;;;;5126327;27;20377;-67
2021/06/22 04:39:11;;;;;;;8.57;2.10;;;;;;;;;;5110640;28;20078;-67
2021/06/22 04:41:38;;;;;;;7.85;2.78;;;;;;;;;;5110103;28;20066;-67
2021/06/22 04:44:04;;;;;;;675.45;600.53;;;;;;;;;;5110299;28;20097;-67
2021/06/22 04:46:30;;;;;;;8.95;2.95;;;;;;;;;;5110328;28;20031;-67
2021/06/22 04:48:57;;;;;;;707.60;632.17;;;;;;;;;;5108598;28;20460;-67
2021/06/22 04:51:23;;;;;;;14.63;3.78;;;;;;;;;;5103252;28;20384;-67
2021/06/22 04:53:49;;;;;;;8.43;3.38;;;;;;;;;;5107535;28;20020;-67
2021/06/22 04:56:15;;;;;;;11.48;3.55;;;;;;;;;;5109481;28;20032;-66
2021/06/22 04:59:27;;;;;;;12.70;3.60;;;;;;;;;;5125789;27;20392;-66
2021/06/22 05:01:53;;;;;;;8.45;3.47;;;;;;;;;;5108379;28;20028;-66
2021/06/22 05:04:21;;;;;;;10.27;3.13;;;;;;;;;;5109021;28;20040;-66
2021/06/22 05:07:55;;;;;;;3.97;2.38;;;;;;;;;;5125699;27;20844;-67
2021/06/22 05:12:21;;;;;;;9.35;4.32;;;;;;;;;;5125426;27;20385;-67
2021/06/22 05:17:05;;;;;;;12.10;3.55;;;;;;;;;;5124411;27;20393;-68
2021/06/22 05:19:31;;;;;;;7.57;2.90;;;;;;;;;;5108561;28;20472;-68
2021/06/22 05:23:21;;;;;;;7.10;2.72;;;;;;;;;;5124669;27;20377;-69
2021/06/22 05:25:47;;;;;;;745.13;644.15;;;;;;;;;;5109077;28;20039;-68
2021/06/22 05:28:14;;;;;;;729.53;649.10;;;;;;;;;;5107147;28;20186;-68
2021/06/22 05:30:40;;;;;;;777.60;655.90;;;;;;;;;;5106692;28;20127;-69
2021/06/22 05:33:06;;;;;;;11.88;3.53;;;;;;;;;;5109917;28;20016;-68
2021/06/22 05:35:33;;;;;;;9.40;2.83;;;;;;;;;;5108446;28;20081;-67
2021/06/22 05:38:46;;;;;;;198.65;188.13;;;;;;;;;;5125965;27;20381;-68
2021/06/22 05:41:12;;;;;;;6.80;3.05;;;;;;;;;;5109947;28;20035;-67
2021/06/22 05:43:38;;;;;;;665.83;602.10;;;;;;;;;;5109545;28;20052;-68
2021/06/22 05:46:04;;;;;;;8.50;4.43;;;;;;;;;;5108079;28;20028;-67
2021/06/22 05:49:10;;;;;;;7.93;3.25;;;;;;;;;;5126032;27;20380;-67
2021/06/22 05:51:36;;;;;;;147.65;136.23;;;;;;;;;;5109762;28;20023;-67
2021/06/22 05:54:03;;;;;;;104.43;96.43;;;;;;;;;;5108672;28;20101;-67
2021/06/22 05:57:21;;;;;;;9.02;2.83;;;;;;;;;;5126265;27;20392;-67
2021/06/22 05:59:48;;;;;;;8.43;3.22;;;;;;;;;;5109638;28;20023;-68
2021/06/22 06:02:14;;;;;;;7.32;2.55;;;;;;;;;;5110122;28;20020;-68
2021/06/22 06:04:41;;;;;;;11.15;3.78;;;;;;;;;;5109385;28;20043;-67
2021/06/22 06:07:08;;;;;;;366.02;340.38;;;;;;;;;;5109226;28;20027;-67
2021/06/22 06:09:34;;;;;;;195.43;180.25;;;;;;;;;;5109754;28;20499;-68
2021/06/22 06:12:00;;;;;;;12.25;3.17;;;;;;;;;;5107967;28;20391;-68
2021/06/22 06:14:26;;;;;;;12.27;3.67;;;;;;;;;;5108419;28;20023;-67
2021/06/22 06:16:52;;;;;;;16.05;3.60;;;;;;;;;;5108033;28;20070;-68
2021/06/22 06:21:00;;;;;;;15.15;4.25;;;;;;;;;;5125620;27;20384;-67
2021/06/22 06:23:31;;;;;;;51.08;47.03;;;;;;;;;;5107886;28;20472;-68
2021/06/22 06:26:51;;;;;;;553.50;503.85;;;;;;;;;;5120223;27;20388;-67
2021/06/22 06:29:44;;;;;;;10.90;3.97;;;;;;;;;;5126035;27;20763;-67
2021/06/22 06:32:10;;;;;;;11.80;3.85;;;;;;;;;;5107169;28;20042;-68
2021/06/22 06:34:37;;;;;;;10.20;3.35;;;;;;;;;;5108663;28;20024;-67
2021/06/22 06:37:04;;;;;;;682.33;611.13;;;;;;;;;;5110175;28;20027;-68
2021/06/22 06:39:30;;;;;;;11.77;3.55;;;;;;;;;;5109804;28;20468;-69
2021/06/22 06:41:56;;;;;;;10.23;3.00;;;;;;;;;;5109590;28;20020;-69
2021/06/22 06:44:22;;;;;;;620.72;547.17;;;;;;;;;;5108313;28;20027;-68
2021/06/22 06:46:48;;;;;;;503.23;416.83;;;;;;;;;;5109654;28;20020;-67
2021/06/22 06:49:15;;;;;;;604.67;488.13;;;;;;;;;;5108972;28;20032;-69
2021/06/22 06:51:41;;;;;;;628.60;466.67;;;;;;;;;;5108365;28;20085;-69
2021/06/22 06:54:07;;;;;;;627.38;566.53;;;;;;;;;;5109386;28;20024;-69
2021/06/22 06:56:33;;;;;;;519.38;418.70;;;;;;;;;;5108870;28;20024;-69
2021/06/22 06:59:00;;;;;;;645.50;525.67;;;;;;;;;;5106865;28;20027;-69
2021/06/22 07:01:26;;;;;;;353.08;321.48;;;;;;;;;;5100342;28;20581;-68
2021/06/22 07:03:55;;;;;;;484.42;444.77;;;;;;;;;;5106824;28;20115;-68
2021/06/22 07:06:21;;;;;;;333.58;302.00;;;;;;;;;;5101076;28;20389;-68
2021/06/22 07:09:59;;;;;;;11.82;4.10;;;;;;;;;;5148525;27;20370;-67
2021/06/22 07:12:26;;;;;;;8.40;2.88;;;;;;;;;;5111419;28;20035;-67
2021/06/22 07:14:52;;;;;;;12.77;4.15;;;;;;;;;;5109084;28;20682;-67
2021/06/22 07:17:18;;;;;;;14.57;3.40;;;;;;;;;;5109236;28;20422;-68
2021/06/22 07:19:44;;;;;;;11.75;5.00;;;;;;;;;;5109127;28;20024;-67
2021/06/22 07:22:10;;;;;;;18.27;4.38;;;;;;;;;;5108678;28;20102;-68
2021/06/22 07:26:55;;;;;;;11.43;3.55;;;;;;;;;;5125205;27;20422;-67
2021/06/22 07:29:21;;;;;;;10.50;3.70;;;;;;;;;;5108729;28;20671;-68
2021/06/22 07:31:47;;;;;;;11.07;3.15;;;;;;;;;;5107790;28;20040;-68
2021/06/22 07:34:13;;;;;;;519.38;474.85;;;;;;;;;;5106485;28;20672;-67
2021/06/22 07:36:40;;;;;;;288.65;266.08;;;;;;;;;;5107194;28;20020;-67
2021/06/22 07:39:06;;;;;;;318.33;300.48;;;;;;;;;;5103289;28;20468;-68
2021/06/22 07:41:32;;;;;;;11.02;3.88;;;;;;;;;;5107345;28;20101;-67
2021/06/22 07:43:58;;;;;;;9.40;3.53;;;;;;;;;;5105939;28;20052;-68
2021/06/22 07:46:40;;;;;;;12.00;3.42;;;;;;;;;;5123028;27;20377;-68
2021/06/22 07:50:11;;;;;;;10.45;3.47;;;;;;;;;;5124027;27;20833;-68
2021/06/22 07:52:38;;;;;;;13.73;4.30;;;;;;;;;;5102390;28;20020;-68
2021/06/22 07:55:04;;;;;;;9.02;2.78;;;;;;;;;;5107450;28;20479;-64
2021/06/22 07:59:32;;;;;;;313.67;289.33;;;;;;;;;;5091145;28;20627;-65
2021/06/22 08:01:58;;;;;;;381.88;355.20;;;;;;;;;;5082459;28;20020;-64
2021/06/22 08:04:24;;;;;;;19.92;12.10;;;;;;;;;;5096353;28;20556;-64
2021/06/22 08:06:53;;;;;;;725.88;633.63;;;;;;;;;;5071059;28;20094;-64
2021/06/22 08:09:19;;;;;;;703.53;629.42;;;;;;;;;;5070913;28;20548;-70
2021/06/22 08:11:46;;;;;;;766.45;692.17;;;;;;;;;;5070476;28;20116;-69
2021/06/22 08:14:12;;;;;;;7.15;2.65;;;;;;;;;;5070218;28;20361;-69
2021/06/22 08:16:38;;;;;;;735.53;670.28;;;;;;;;;;5087946;28;20020;-69
2021/06/22 08:19:04;;;;;;;764.42;702.10;;;;;;;;;;5088338;28;20484;-70
2021/06/22 08:21:31;;;;;;;378.23;355.38;;;;;;;;;;5088266;28;20641;-70
2021/06/22 08:23:57;;;;;;;309.10;293.05;;;;;;;;;;5088678;28;20068;-69
2021/06/22 08:26:23;;;;;;;585.17;534.08;;;;;;;;;;5087996;28;20051;-69
2021/06/22 08:28:49;;;;;;;548.53;503.88;;;;;;;;;;5080473;28;20082;-69
2021/06/22 08:31:16;;;;;;;9.57;2.95;;;;;;;;;;5084200;28;20543;-69
2021/06/22 08:33:43;;;;;;;103.65;97.28;;;;;;;;;;5086547;28;20122;-69
2021/06/22 08:36:09;;;;;;;15.25;2.83;;;;;;;;;;5086752;28;20016;-69
2021/06/22 08:38:35;;;;;;;11.65;3.75;;;;;;;;;;5087056;28;20044;-69
2021/06/22 08:41:01;;;;;;;11.43;3.15;;;;;;;;;;5087637;28;20642;-69
2021/06/22 08:43:27;;;;;;;12.00;3.63;;;;;;;;;;5087367;28;20021;-69
2021/06/22 08:45:54;;;;;;;12.60;3.60;;;;;;;;;;5087981;28;20111;-69
2021/06/22 08:48:20;;;;;;;7.55;2.95;;;;;;;;;;5084108;28;20392;-69
2021/06/22 08:50:47;;;;;;;14.15;4.03;;;;;;;;;;5081316;28;20610;-69
2021/06/22 08:53:14;;;;;;;15.38;4.03;;;;;;;;;;5081162;28;20028;-70
2021/06/22 08:55:41;;;;;;;8.27;2.83;;;;;;;;;;5068089;28;20028;-69
2021/06/22 08:58:11;;;;;;;12.18;3.67;;;;;;;;;;5069600;28;20055;-70
2021/06/22 09:00:39;;;;;;;10.27;2.72;;;;;;;;;;5068690;28;20032;-70
2021/06/22 09:03:06;;;;;;;9.75;3.22;;;;;;;;;;5087253;28;20024;-69
2021/06/22 09:05:32;;;;;;;8.23;3.05;;;;;;;;;;5087830;28;20023;-69
2021/06/22 09:07:58;;;;;;;15.13;4.03;;;;;;;;;;5087264;28;20032;-70
2021/06/22 09:10:26;;;;;;;14.32;3.42;;;;;;;;;;5058386;28;20485;-70
2021/06/22 09:12:53;;;;;;;8.52;2.97;;;;;;;;;;5074752;28;20025;-70
2021/06/22 09:15:21;;;;;;;11.70;3.35;;;;;;;;;;5055278;28;20115;-69
2021/06/22 09:17:47;;;;;;;9.40;3.40;;;;;;;;;;5074167;28;20024;-70
2021/06/22 09:20:31;;;;;;;14.23;3.85;;;;;;;;;;5071141;28;20024;-69
2021/06/22 09:23:05;;;;;;;16.50;3.67;;;;;;;;;;5073205;28;20538;-69
2021/06/22 09:25:34;;;;;;;13.00;3.58;;;;;;;;;;5055981;28;20048;-69
2021/06/22 09:28:00;;;;;;;14.00;3.90;;;;;;;;;;5072184;28;20031;-70
2021/06/22 09:30:40;;;;;;;11.20;3.08;;;;;;;;;;5067919;28;20024;-69
2021/06/22 09:33:12;;;;;;;20.00;3.28;;;;;;;;;;5068696;28;20476;-69
2021/06/22 09:35:38;;;;;;;10.80;3.40;;;;;;;;;;5074231;28;20384;-70
2021/06/22 09:38:05;;;;;;;8.05;2.88;;;;;;;;;;5072351;28;20024;-69
2021/06/22 09:40:31;;;;;;;10.70;2.88;;;;;;;;;;5071940;28;20028;-69
2021/06/22 09:42:58;;;;;;;8.23;2.97;;;;;;;;;;5072518;28;20100;-69
2021/06/22 09:45:26;;;;;;;14.18;3.22;;;;;;;;;;5073123;28;20039;-70
2021/06/22 09:47:53;;;;;;;10.18;3.10;;;;;;;;;;5073144;28;20083;-69
2021/06/22 09:50:38;;;;;;;11.75;3.45;;;;;;;;;;5071097;28;20017;-70
2021/06/22 09:53:23;;;;;;;8.90;3.95;;;;;;;;;;5070525;28;20040;-70
2021/06/22 09:55:49;;;;;;;9.88;3.67;;;;;;;;;;5070437;28;20799;-70
2021/06/22 09:58:16;;;;;;;10.88;3.83;;;;;;;;;;5073401;28;20044;-70
2021/06/22 10:00:42;;;;;;;9.95;3.15;;;;;;;;;;5091641;28;20375;-70
2021/06/22 10:03:10;;;;;;;16.55;3.72;;;;;;;;;;5091613;28;20020;-69
2021/06/22 10:05:49;;;;;;;11.23;3.13;;;;;;;;;;5092182;28;20520;-70
2021/06/22 10:08:15;;;;;;;9.80;2.85;;;;;;;;;;5092370;28;20468;-69
2021/06/22 10:10:42;;;;;;;10.55;3.90;;;;;;;;;;5092725;28;20028;-69
2021/06/22 10:13:08;;;;;;;13.48;3.78;;;;;;;;;;5092929;28;20016;-70
2021/06/22 10:15:34;;;;;;;10.90;2.97;;;;;;;;;;5093130;28;20024;-69
2021/06/22 10:18:02;;;;;;;13.00;4.00;;;;;;;;;;5090837;28;20031;-69
2021/06/22 10:20:28;;;;;;;10.65;3.55;;;;;;;;;;5091898;28;20028;-69
2021/06/22 10:22:54;;;;;;;17.48;3.88;;;;;;;;;;5091606;28;20027;-69
2021/06/22 10:25:21;;;;;;;14.52;3.97;;;;;;;;;;5092212;28;20484;-69
2021/06/22 10:27:50;;;;;;;14.55;3.70;;;;;;;;;;5074717;28;20031;-69
2021/06/22 10:30:19;;;;;;;15.32;3.33;;;;;;;;;;5091776;28;20759;-69
2021/06/22 10:32:46;;;;;;;15.65;4.32;;;;;;;;;;5074037;28;20038;-69
2021/06/22 10:35:14;;;;;;;18.23;4.18;;;;;;;;;;5093141;28;20077;-69
2021/06/22 10:37:47;;;;;;;14.40;3.20;;;;;;;;;;5092563;28;20032;-69
2021/06/22 10:40:14;;;;;;;16.52;3.78;;;;;;;;;;5074251;28;20491;-69
2021/06/22 10:42:40;;;;;;;14.60;3.80;;;;;;;;;;5092434;28;20028;-69
2021/06/22 10:45:06;;;;;;;14.10;3.78;;;;;;;;;;5092205;28;20421;-70
2021/06/22 10:47:32;;;;;;;17.90;3.80;;;;;;;;;;5074328;28;20107;-69
2021/06/22 10:50:11;;;;;;;14.05;3.88;;;;;;;;;;5051163;28;20082;-69
2021/06/22 10:55:09;;;;;;;15.93;3.72;;;;;;;;;;5072197;28;20028;-68
2021/06/22 10:57:54;;;;;;;21.77;4.10;;;;;;;;;;5072582;28;20089;-68
2021/06/22 11:00:20;;;;;;;12.38;3.70;;;;;;;;;;5051576;28;20029;-69
2021/06/22 11:02:59;;;;;;;17.35;3.67;;;;;;;;;;5071317;28;20024;-68
2021/06/22 11:05:26;;;;;;;16.58;4.22;;;;;;;;;;5054261;28;20112;-69
2021/06/22 11:08:10;;;;;;;10.48;3.25;;;;;;;;;;5053967;28;20021;-70
2021/06/22 11:11:02;;;;;;;22.13;3.83;;;;;;;;;;5072926;28;20480;-69
2021/06/22 11:13:59;;;;;;;16.95;3.47;;;;;;;;;;5074176;28;20038;-68
2021/06/22 11:16:25;;;;;;;16.27;4.40;;;;;;;;;;5071842;28;20028;-68
2021/06/22 11:18:55;;;;;;;15.63;3.38;;;;;;;;;;5073430;28;20564;-68
2021/06/22 11:21:25;;;;;;;14.02;3.35;;;;;;;;;;5073571;28;20038;-69
2021/06/22 11:24:04;;;;;;;12.85;3.35;;;;;;;;;;5074738;28;20036;-69
2021/06/22 11:26:31;;;;;;;17.98;4.35;;;;;;;;;;5090566;28;20065;-69
2021/06/22 11:28:58;;;;;;;20.13;4.60;;;;;;;;;;5091992;28;20016;-70
2021/06/22 11:31:32;;;;;;;20.90;4.05;;;;;;;;;;5074718;28;20036;-69
2021/06/22 11:34:18;;;;;;;21.35;5.18;;;;;;;;;;5092598;28;20012;-69
2021/06/22 11:36:45;;;;;;;21.65;4.25;;;;;;;;;;5092522;28;20468;-69
2021/06/22 11:39:18;;;;;;;14.75;4.25;;;;;;;;;;5092520;28;20078;-69
2021/06/22 11:42:02;;;;;;;25.05;5.88;;;;;;;;;;5093124;28;20016;-69
2021/06/22 11:44:29;;;;;;;16.42;4.30;;;;;;;;;;5092383;28;20475;-69
2021/06/22 11:46:57;;;;;;;19.33;4.95;;;;;;;;;;5092761;28;20507;-69
2021/06/22 11:49:38;;;;;;;14.70;3.63;;;;;;;;;;5092462;28;20099;-69
2021/06/22 11:52:05;;;;;;;17.52;5.45;;;;;;;;;;5092724;28;20077;-69
2021/06/22 11:54:50;;;;;;;16.52;4.30;;;;;;;;;;5092758;28;20020;-69
2021/06/22 11:57:18;;;;;;;20.33;4.80;;;;;;;;;;5074020;28;20074;-69
2021/06/22 11:59:44;;;;;;;17.75;4.93;;;;;;;;;;5092511;28;20028;-69
2021/06/22 12:02:11;;;;;;;16.98;4.57;;;;;;;;;;5092430;28;20020;-69
2021/06/22 12:04:37;;;;;;;16.20;4.15;;;;;;;;;;5092014;28;20032;-69
2021/06/22 12:07:03;;;;;;;16.98;4.35;;;;;;;;;;5092126;28;20048;-69
2021/06/22 12:09:30;;;;;;;18.63;4.18;;;;;;;;;;5092584;28;20564;-69
2021/06/22 12:11:56;;;;;;;19.92;4.25;;;;;;;;;;5091984;28;20085;-69
2021/06/22 12:14:23;;;;;;;21.67;4.13;;;;;;;;;;5091972;28;20027;-69
2021/06/22 12:16:49;;;;;;;23.88;4.93;;;;;;;;;;5092262;28;20048;-69
2021/06/22 12:19:20;;;;;;;20.55;4.15;;;;;;;;;;5066331;28;20032;-69
2021/06/22 12:21:47;;;;;;;24.15;4.47;;;;;;;;;;5054047;28;20025;-69
2021/06/22 12:24:16;;;;;;;24.65;4.90;;;;;;;;;;5054094;28;20500;-69
2021/06/22 12:26:44;;;;;;;23.15;5.22;;;;;;;;;;5071602;28;20055;-69
2021/06/22 12:29:26;;;;;;;17.13;4.78;;;;;;;;;;5069722;28;20004;-70
2021/06/22 12:31:53;;;;;;;25.05;3.55;;;;;;;;;;5061009;28;20143;-68
2021/06/22 12:34:19;;;;;;;21.02;4.88;;;;;;;;;;5074193;28;20028;-70
2021/06/22 12:36:45;;;;;;;21.67;4.75;;;;;;;;;;5073699;28;20035;-70
2021/06/22 12:39:14;;;;;;;24.52;5.43;;;;;;;;;;5091308;28;20040;-69
2021/06/22 12:41:41;;;;;;;20.60;5.05;;;;;;;;;;5092000;28;20017;-69
2021/06/22 12:44:08;;;;;;;20.85;4.93;;;;;;;;;;5092209;28;20035;-69
2021/06/22 12:46:36;;;;;;;21.60;4.18;;;;;;;;;;5095248;28;20016;-69
2021/06/22 12:49:04;;;;;;;17.15;4.47;;;;;;;;;;5092566;28;20027;-69
2021/06/22 12:51:41;;;;;;;24.10;7.32;;;;;;;;;;5073756;28;20100;-69
2021/06/22 12:54:07;;;;;;;16.23;4.38;;;;;;;;;;5073616;28;20349;-69
2021/06/22 12:56:47;;;;;;;21.90;3.78;;;;;;;;;;5055471;28;20020;-68
2021/06/22 12:59:15;;;;;;;17.10;4.35;;;;;;;;;;5073007;28;20044;-69
2021/06/22 13:01:42;;;;;;;25.80;5.25;;;;;;;;;;5074046;28;20017;-68
2021/06/22 13:04:13;;;;;;;26.52;4.68;;;;;;;;;;5074698;28;20491;-69
2021/06/22 13:06:40;;;;;;;16.77;4.30;;;;;;;;;;5056770;28;20028;-69
2021/06/22 13:09:10;;;;;;;21.98;5.22;;;;;;;;;;5074632;28;20139;-69
2021/06/22 13:11:37;;;;;;;22.55;4.75;;;;;;;;;;5075228;28;20025;-68
2021/06/22 13:14:11;;;;;;;23.80;5.50;;;;;;;;;;5074353;28;20096;-69
2021/06/22 13:16:37;;;;;;;18.30;4.00;;;;;;;;;;5075217;28;20024;-69
2021/06/22 13:19:04;;;;;;;16.48;4.70;;;;;;;;;;5056994;28;20115;-69
2021/06/22 13:21:36;;;;;;;29.17;4.68;;;;;;;;;;5074733;28;20367;-68
2021/06/22 13:24:04;;;;;;;21.17;5.03;;;;;;;;;;5075107;28;20024;-68
2021/06/22 13:26:30;;;;;;;21.90;4.50;;;;;;;;;;5075105;28;20101;-68
2021/06/22 13:28:59;;;;;;;19.52;4.15;;;;;;;;;;5074549;28;20021;-68
2021/06/22 13:31:26;;;;;;;21.10;4.10;;;;;;;;;;5075100;28;20020;-69
2021/06/22 13:34:01;;;;;;;25.30;5.18;;;;;;;;;;5075006;28;20436;-68
2021/06/22 13:36:28;;;;;;;18.42;5.18;;;;;;;;;;5074548;28;20051;-68
2021/06/22 13:39:03;;;;;;;18.70;3.80;;;;;;;;;;5074861;28;20035;-69
2021/06/22 13:41:29;;;;;;;17.15;4.45;;;;;;;;;;5056780;28;20028;-69
2021/06/22 13:43:55;;;;;;;19.25;5.00;;;;;;;;;;5074480;28;20023;-68
2021/06/22 13:46:25;;;;;;;24.27;4.47;;;;;;;;;;5074517;28;20035;-69
2021/06/22 13:48:55;;;;;;;24.10;5.22;;;;;;;;;;5074583;28;20468;-68
2021/06/22 13:51:28;;;;;;;20.50;3.92;;;;;;;;;;5074678;28;20029;-69
2021/06/22 13:54:13;;;;;;;12.38;4.10;;;;;;;;;;5074596;28;20016;-69
2021/06/22 13:56:40;;;;;;;16.70;3.83;;;;;;;;;;5073908;28;20132;-69
2021/06/22 13:59:07;;;;;;;16.58;4.15;;;;;;;;;;5056208;28;20051;-69
2021/06/22 14:01:33;;;;;;;16.15;4.13;;;;;;;;;;5074422;28;20020;-69
2021/06/22 14:04:00;;;;;;;17.00;4.63;;;;;;;;;;5055951;28;20021;-71
2021/06/22 14:06:26;;;;;;;18.20;4.15;;;;;;;;;;5056312;28;20027;-69
2021/06/22 14:08:53;;;;;;;19.05;4.18;;;;;;;;;;5074540;28;20468;-69
2021/06/22 14:11:19;;;;;;;20.65;5.60;;;;;;;;;;5056089;28;20028;-69
2021/06/22 14:13:48;;;;;;;23.15;4.82;;;;;;;;;;5074268;28;20027;-69
2021/06/22 14:16:14;;;;;;;11.30;3.55;;;;;;;;;;5073929;28;20017;-69
2021/06/22 14:18:40;;;;;;;22.05;4.38;;;;;;;;;;5073546;28;20064;-68
2021/06/22 14:21:06;;;;;;;19.83;4.22;;;;;;;;;;5055999;28;20384;-69
2021/06/22 14:23:33;;;;;;;18.50;4.97;;;;;;;;;;5073850;28;20028;-68
2021/06/22 14:25:59;;;;;;;14.50;5.20;;;;;;;;;;5073576;28;20017;-69
2021/06/22 14:28:28;;;;;;;19.70;4.30;;;;;;;;;;5055864;28;20388;-68
2021/06/22 14:30:56;;;;;;;23.90;5.00;;;;;;;;;;5073838;28;20075;-69
2021/06/22 14:33:22;;;;;;;22.75;4.70;;;;;;;;;;5073475;28;20419;-69
2021/06/22 14:35:49;;;;;;;21.98;4.15;;;;;;;;;;5073624;28;20078;-69
2021/06/22 14:38:16;;;;;;;19.60;8.43;;;;;;;;;;5073019;28;20062;-69
2021/06/22 14:40:42;;;;;;;12.93;4.82;;;;;;;;;;5073515;28;20031;-69
2021/06/22 14:43:09;;;;;;;15.48;5.07;;;;;;;;;;5073442;28;20485;-69
2021/06/22 14:45:35;;;;;;;13.55;3.45;;;;;;;;;;5055043;28;20039;-69
2021/06/22 14:48:03;;;;;;;21.20;4.93;;;;;;;;;;5073373;28;20028;-69
2021/06/22 14:50:30;;;;;;;11.50;3.72;;;;;;;;;;5073461;28;20048;-69
2021/06/22 14:52:56;;;;;;;22.42;4.32;;;;;;;;;;5055061;28;20381;-69
2021/06/22 14:55:29;;;;;;;15.30;3.95;;;;;;;;;;5073335;28;20481;-69
2021/06/22 14:58:00;;;;;;;13.20;4.40;;;;;;;;;;5073020;28;20056;-69
2021/06/22 15:00:27;;;;;;;14.43;4.37;;;;;;;;;;5072823;28;20496;-70
2021/06/22 15:02:55;;;;;;;15.60;4.47;;;;;;;;;;5073061;28;20086;-69
2021/06/22 15:05:21;;;;;;;20.63;4.60;;;;;;;;;;5073117;28;20021;-69
2021/06/22 15:07:48;;;;;;;18.20;3.47;;;;;;;;;;5072317;28;20100;-69
2021/06/22 15:10:14;;;;;;;19.13;4.70;;;;;;;;;;5073012;28;20560;-69
2021/06/22 15:12:40;;;;;;;16.45;3.60;;;;;;;;;;5073097;28;20100;-69
2021/06/22 15:15:07;;;;;;;16.65;3.80;;;;;;;;;;5072593;28;20517;-69
2021/06/22 15:17:34;;;;;;;16.40;4.43;;;;;;;;;;5072932;28;20074;-69
2021/06/22 15:20:02;;;;;;;19.77;4.57;;;;;;;;;;5072938;28;20089;-69
2021/06/22 15:22:28;;;;;;;23.70;4.88;;;;;;;;;;5072565;28;20425;-69
2021/06/22 15:24:54;;;;;;;17.35;3.67;;;;;;;;;;5054900;28;20024;-69
2021/06/22 15:27:21;;;;;;;16.45;3.33;;;;;;;;;;5072624;28;20025;-69
2021/06/22 15:29:47;;;;;;;22.42;4.00;;;;;;;;;;5072805;28;20077;-69
2021/06/22 15:32:13;;;;;;;18.88;5.43;;;;;;;;;;5072607;28;20052;-69
2021/06/22 15:34:39;;;;;;;18.33;3.80;;;;;;;;;;5072330;28;20023;-70
2021/06/22 15:37:05;;;;;;;16.48;4.18;;;;;;;;;;5072661;28;20043;-69
2021/06/22 15:39:32;;;;;;;17.02;3.95;;;;;;;;;;5072496;28;20032;-69
2021/06/22 15:41:58;;;;;;;26.50;4.30;;;;;;;;;;5072281;28;20422;-69